Les articles d'ExpertMaritime.pro


Votre expert maritime indépendant Xavier Braive est disponible sur la zone de Meschers-sur-Gironde - Port de Meschers - 17132

(Charente-Maritime - Poitou-Charentes)


Voir plan
Situation :

Le Port de Meschers, situé sur la rive droite de la Gironde près de son embouchure, est abrité par tous temps.

Il comprend :

- Un avant-chenal de 250 m de long, large de 8 m qui fait un angle de 8° W avec le Nord vrai, creusé à la cote + 0,50 m ; le vieux havre d’échouage ou « chenal » équipé de quai, cales en 1861.

- Un bassin d’échouage créé 1985 de 121 places sur pontons flottants, creuse à la cote + 1 m.

- Un bassin à flot mis en service en 1990, de 121 places à l’origine, 116 aujourd’hui (on y a placé des bateaux plus grands que prévu), en arrière d’une porte-écluse, T.E. 2,50 m ; le seuil de l’écluse est à la cote + 2 m ; les portes ouvrent quand la mer atteint le niveau + 3,50 m, avec 1,50 m d’eau sur le seuil (les cotes se réfèrent au niveau 0 des cartes marines).
Lat. 45° 33?, 3 N – Long. 00° 56?, 6 W ; carte SHOM 7029.
Distances : LE VERDON : 3,5 M. – ROYAN : 5 M. – PAUILLAC : 23 M. – BORDEAUX : 48 M.

- Une zone de mouillage, ouverte d’Avril à Septembre, de 22 corps morts, sur les vases à l’est du chenal d’accès.

Pratique :

Ville de Meschers : Location des anneaux.
Capitainerie, Tél.: 05.46.02.56.89 – VHF canal 9 –
n° de Fax 05 46 02 34 77 - GSM 06 15 11 23 10
Monsieur KERDUDOU est le capitaine assermenté du port.

SAUVETAGE :
CROSS ETEL, Tél.: O2 .97.553.535.
De juin à septembre Poste de Secours – Plage des Nonnes,
Tél. : 05.46.02.72.92, situé à 1 mille au nord du Port.
Météo affichée à la Capitainerie.
Météo locale sur la zone Port de Meschers
Heure (UTC) Dir.Vent Vit.Vent (nds) Force (Bft) T°min T°max P (mb) Hum.Rel.
18/06/2021 - 03:00:00 au 18/06/2021 - 06:00:00 264° (W) 2 1 18°C 19°C 1011 94 %
18/06/2021 - 06:00:00 au 18/06/2021 - 09:00:00 302° (WNW) 5 2 19°C 20°C 1012 91 %
18/06/2021 - 09:00:00 au 18/06/2021 - 12:00:00 275° (W) 8 3 21°C 21°C 1014 82 %
18/06/2021 - 12:00:00 au 18/06/2021 - 15:00:00 290° (WNW) 7 3 22°C 22°C 1015 75 %
18/06/2021 - 15:00:00 au 18/06/2021 - 18:00:00 321° (NW) 7 3 20°C 20°C 1015 81 %
18/06/2021 - 18:00:00 au 18/06/2021 - 21:00:00 359° (N) 7 3 18°C 18°C 1015 89 %
18/06/2021 - 21:00:00 au 19/06/2021 - 00:00:00 343° (NNW) 5 2 17°C 17°C 1015 90 %
19/06/2021 - 00:00:00 au 19/06/2021 - 03:00:00 037° (NE) 4 2 17°C 17°C 1014 91 %
19/06/2021 - 03:00:00 au 19/06/2021 - 06:00:00 019° (NNE) 6 2 18°C 18°C 1013 89 %
19/06/2021 - 06:00:00 au 19/06/2021 - 09:00:00 104° (ESE) 6 2 22°C 22°C 1013 77 %
19/06/2021 - 09:00:00 au 19/06/2021 - 12:00:00 209° (SSW) 6 2 24°C 24°C 1011 70 %
19/06/2021 - 12:00:00 au 19/06/2021 - 15:00:00 256° (WSW) 9 3 19°C 19°C 1010 94 %
19/06/2021 - 15:00:00 au 19/06/2021 - 18:00:00 289° (WNW) 4 2 20°C 20°C 1009 88 %
19/06/2021 - 18:00:00 au 19/06/2021 - 21:00:00 231° (SW) 5 2 18°C 18°C 1009 92 %
19/06/2021 - 21:00:00 au 20/06/2021 - 00:00:00 214° (SW) 4 2 18°C 18°C 1007 90 %
20/06/2021 - 00:00:00 au 20/06/2021 - 03:00:00 199° (SSW) 4 2 17°C 17°C 1006 90 %
20/06/2021 - 03:00:00 au 20/06/2021 - 06:00:00 158° (SSE) 6 2 17°C 17°C 1006 90 %
20/06/2021 - 06:00:00 au 20/06/2021 - 09:00:00 195° (SSW) 14 4 21°C 21°C 1005 67 %
20/06/2021 - 09:00:00 au 20/06/2021 - 12:00:00 212° (SSW) 21 5 21°C 21°C 1006 60 %
20/06/2021 - 12:00:00 au 20/06/2021 - 15:00:00 246° (WSW) 14 4 19°C 19°C 1006 74 %
20/06/2021 - 15:00:00 au 20/06/2021 - 18:00:00 277° (W) 5 2 19°C 19°C 1006 72 %
20/06/2021 - 18:00:00 au 20/06/2021 - 21:00:00 355° (N) 3 1 17°C 17°C 1007 78 %
20/06/2021 - 21:00:00 au 21/06/2021 - 00:00:00 334° (NNW) 3 1 16°C 16°C 1007 88 %
21/06/2021 - 00:00:00 au 21/06/2021 - 03:00:00 075° (ENE) 3 1 14°C 14°C 1006 93 %
21/06/2021 - 03:00:00 au 21/06/2021 - 06:00:00 197° (SSW) 4 2 15°C 15°C 1006 93 %
21/06/2021 - 06:00:00 au 21/06/2021 - 09:00:00 248° (WSW) 10 3 17°C 17°C 1007 84 %
21/06/2021 - 09:00:00 au 21/06/2021 - 12:00:00 233° (SW) 15 4 19°C 19°C 1009 74 %
21/06/2021 - 12:00:00 au 21/06/2021 - 15:00:00 236° (SW) 14 4 19°C 19°C 1009 73 %
21/06/2021 - 15:00:00 au 21/06/2021 - 18:00:00 250° (WSW) 13 4 19°C 19°C 1010 77 %
21/06/2021 - 18:00:00 au 21/06/2021 - 21:00:00 242° (WSW) 7 3 16°C 16°C 1012 85 %
21/06/2021 - 21:00:00 au 22/06/2021 - 00:00:00 272° (W) 6 2 16°C 16°C 1012 85 %
22/06/2021 - 00:00:00 au 22/06/2021 - 03:00:00 336° (NNW) 8 3 15°C 15°C 1012 92 %
22/06/2021 - 03:00:00 au 22/06/2021 - 06:00:00 353° (N) 12 4 15°C 15°C 1015 92 %
22/06/2021 - 06:00:00 au 22/06/2021 - 09:00:00 352° (N) 12 4 16°C 16°C 1017 80 %
22/06/2021 - 09:00:00 au 22/06/2021 - 12:00:00 330° (NNW) 11 4 18°C 18°C 1019 59 %
22/06/2021 - 12:00:00 au 22/06/2021 - 15:00:00 321° (NW) 13 4 18°C 18°C 1020 63 %
22/06/2021 - 15:00:00 au 22/06/2021 - 18:00:00 316° (NW) 12 4 18°C 18°C 1021 66 %
22/06/2021 - 18:00:00 au 22/06/2021 - 21:00:00 329° (NNW) 9 3 15°C 15°C 1023 76 %
22/06/2021 - 21:00:00 au 23/06/2021 - 00:00:00 345° (NNW) 4 2 14°C 14°C 1023 76 %
23/06/2021 - 00:00:00 au 23/06/2021 - 03:00:00 110° (ESE) 2 1 14°C 14°C 1023 77 %
openweathermap
Ces informations sont partiellement extraites de Wikipedia, et des sites pertinents pour cette zone. Compilation d'informations de Xavier Braive.
Xavier Braive, Expert Maritime Plaisance se déplace sur Port de Meschers, Meschers-sur-Gironde, 17132, Charente-Maritime

Welcome to Cross-Channel yachtmen !

we can deliver survey reports in english, in case of dammage or prior to buy / sell a boat in France (pre-purchase survey), and more specifically on the Atlantic coast.

Uw onafhankelijk jachtexpert

verkrijkbaar op de Atlantische kust, bij aankoop of reparatie van jachten (metaal, polyester of composiet). Rapporten in Nederlands

BRAIVE, Xavier
Xavier Braive
Expert Maritime
Nouvelle Aquitaine
France
06 71 50 20 17